sensor_id;sensor_type;location;lat;lon;timestamp;P1;durP1;ratioP1;P2;durP2;ratioP2
42036;SDS011;30340;52.004;5.908;2022-12-18T00:00:44;49.22;;;26.38;;
42036;SDS011;30340;52.004;5.908;2022-12-18T00:03:12;52.28;;;27.25;;
42036;SDS011;30340;52.004;5.908;2022-12-18T00:05:47;43.45;;;23.20;;
42036;SDS011;30340;52.004;5.908;2022-12-18T00:08:13;48.45;;;26.88;;
42036;SDS011;30340;52.004;5.908;2022-12-18T00:10:39;47.55;;;26.85;;
42036;SDS011;30340;52.004;5.908;2022-12-18T00:13:04;46.88;;;26.00;;
42036;SDS011;30340;52.004;5.908;2022-12-18T00:15:30;53.17;;;28.38;;
42036;SDS011;30340;52.004;5.908;2022-12-18T00:18:02;48.55;;;27.25;;
42036;SDS011;30340;52.004;5.908;2022-12-18T00:20:28;53.05;;;27.98;;
42036;SDS011;30340;52.004;5.908;2022-12-18T00:22:54;40.20;;;22.33;;
42036;SDS011;30340;52.004;5.908;2022-12-18T00:25:20;41.50;;;22.95;;
42036;SDS011;30340;52.004;5.908;2022-12-18T00:27:45;45.33;;;24.55;;
42036;SDS011;30340;52.004;5.908;2022-12-18T00:30:11;40.88;;;22.63;;
42036;SDS011;30340;52.004;5.908;2022-12-18T00:32:37;45.17;;;25.35;;
42036;SDS011;30340;52.004;5.908;2022-12-18T00:35:03;44.38;;;24.20;;
42036;SDS011;30340;52.004;5.908;2022-12-18T00:37:30;42.97;;;23.85;;
42036;SDS011;30340;52.004;5.908;2022-12-18T00:39:56;49.65;;;28.23;;
42036;SDS011;30340;52.004;5.908;2022-12-18T00:42:21;44.30;;;25.63;;
42036;SDS011;30340;52.004;5.908;2022-12-18T00:45:05;46.90;;;26.63;;
42036;SDS011;30340;52.004;5.908;2022-12-18T00:47:31;44.10;;;25.17;;
42036;SDS011;30340;52.004;5.908;2022-12-18T00:49:57;41.47;;;22.92;;
42036;SDS011;30340;52.004;5.908;2022-12-18T00:52:22;42.72;;;23.33;;
42036;SDS011;30340;52.004;5.908;2022-12-18T00:54:48;37.45;;;21.77;;
42036;SDS011;30340;52.004;5.908;2022-12-18T00:57:13;40.22;;;21.90;;
42036;SDS011;30340;52.004;5.908;2022-12-18T00:59:39;37.92;;;20.55;;
42036;SDS011;30340;52.004;5.908;2022-12-18T01:02:04;43.33;;;24.15;;
42036;SDS011;30340;52.004;5.908;2022-12-18T01:04:33;40.40;;;22.92;;
42036;SDS011;30340;52.004;5.908;2022-12-18T01:06:59;38.80;;;21.17;;
42036;SDS011;30340;52.004;5.908;2022-12-18T01:09:25;37.97;;;20.88;;
42036;SDS011;30340;52.004;5.908;2022-12-18T01:11:51;39.78;;;22.85;;
42036;SDS011;30340;52.004;5.908;2022-12-18T01:14:17;39.22;;;21.92;;
42036;SDS011;30340;52.004;5.908;2022-12-18T01:16:42;40.90;;;22.90;;
42036;SDS011;30340;52.004;5.908;2022-12-18T01:19:08;34.78;;;20.05;;
42036;SDS011;30340;52.004;5.908;2022-12-18T01:21:34;33.08;;;18.92;;
42036;SDS011;30340;52.004;5.908;2022-12-18T01:23:59;34.85;;;18.88;;
42036;SDS011;30340;52.004;5.908;2022-12-18T01:26:26;33.53;;;19.33;;
42036;SDS011;30340;52.004;5.908;2022-12-18T01:28:54;36.80;;;21.60;;
42036;SDS011;30340;52.004;5.908;2022-12-18T01:33:52;39.30;;;22.48;;
42036;SDS011;30340;52.004;5.908;2022-12-18T01:36:22;36.65;;;20.05;;
42036;SDS011;30340;52.004;5.908;2022-12-18T01:38:52;40.00;;;23.13;;
42036;SDS011;30340;52.004;5.908;2022-12-18T01:41:20;36.00;;;21.02;;
42036;SDS011;30340;52.004;5.908;2022-12-18T01:43:53;34.97;;;19.38;;
42036;SDS011;30340;52.004;5.908;2022-12-18T01:46:21;36.80;;;19.75;;
42036;SDS011;30340;52.004;5.908;2022-12-18T01:48:53;36.00;;;19.77;;
42036;SDS011;30340;52.004;5.908;2022-12-18T01:51:22;34.03;;;19.98;;
42036;SDS011;30340;52.004;5.908;2022-12-18T01:53:48;35.22;;;20.65;;
42036;SDS011;30340;52.004;5.908;2022-12-18T01:56:15;36.67;;;21.38;;
42036;SDS011;30340;52.004;5.908;2022-12-18T02:01:29;41.35;;;23.15;;
42036;SDS011;30340;52.004;5.908;2022-12-18T02:04:21;34.63;;;20.25;;
42036;SDS011;30340;52.004;5.908;2022-12-18T02:06:55;36.55;;;21.42;;
42036;SDS011;30340;52.004;5.908;2022-12-18T02:09:49;34.55;;;20.13;;
42036;SDS011;30340;52.004;5.908;2022-12-18T02:12:23;32.58;;;19.42;;
42036;SDS011;30340;52.004;5.908;2022-12-18T02:17:57;35.08;;;19.95;;
42036;SDS011;30340;52.004;5.908;2022-12-18T02:21:12;30.70;;;17.55;;
42036;SDS011;30340;52.004;5.908;2022-12-18T02:26:21;30.73;;;18.52;;
42036;SDS011;30340;52.004;5.908;2022-12-18T02:31:21;26.73;;;16.33;;
42036;SDS011;30340;52.004;5.908;2022-12-18T02:33:53;27.95;;;16.73;;
42036;SDS011;30340;52.004;5.908;2022-12-18T02:36:24;29.98;;;17.98;;
42036;SDS011;30340;52.004;5.908;2022-12-18T02:38:51;28.77;;;17.40;;
42036;SDS011;30340;52.004;5.908;2022-12-18T02:41:19;30.05;;;18.23;;
42036;SDS011;30340;52.004;5.908;2022-12-18T02:43:47;31.92;;;18.58;;
42036;SDS011;30340;52.004;5.908;2022-12-18T02:52:00;29.17;;;16.80;;
42036;SDS011;30340;52.004;5.908;2022-12-18T02:54:39;30.38;;;18.15;;
42036;SDS011;30340;52.004;5.908;2022-12-18T03:00:09;30.92;;;18.15;;
42036;SDS011;30340;52.004;5.908;2022-12-18T03:05:36;28.25;;;17.50;;
42036;SDS011;30340;52.004;5.908;2022-12-18T03:08:24;30.08;;;17.98;;
42036;SDS011;30340;52.004;5.908;2022-12-18T03:11:01;31.83;;;17.95;;
42036;SDS011;30340;52.004;5.908;2022-12-18T03:16:08;26.02;;;16.55;;
42036;SDS011;30340;52.004;5.908;2022-12-18T03:21:13;26.23;;;15.60;;
42036;SDS011;30340;52.004;5.908;2022-12-18T03:23:44;26.33;;;15.95;;
42036;SDS011;30340;52.004;5.908;2022-12-18T03:26:16;24.17;;;14.23;;
42036;SDS011;30340;52.004;5.908;2022-12-18T03:28:46;21.43;;;14.13;;
42036;SDS011;30340;52.004;5.908;2022-12-18T03:31:18;22.73;;;14.18;;
42036;SDS011;30340;52.004;5.908;2022-12-18T03:33:54;25.85;;;15.65;;
42036;SDS011;30340;52.004;5.908;2022-12-18T03:36:22;25.67;;;15.63;;
42036;SDS011;30340;52.004;5.908;2022-12-18T03:38:48;23.55;;;14.65;;
42036;SDS011;30340;52.004;5.908;2022-12-18T03:46:59;24.92;;;16.05;;
42036;SDS011;30340;52.004;5.908;2022-12-18T03:52:03;26.77;;;16.10;;
42036;SDS011;30340;52.004;5.908;2022-12-18T03:54:37;22.23;;;14.23;;
42036;SDS011;30340;52.004;5.908;2022-12-18T03:57:13;24.08;;;15.40;;
42036;SDS011;30340;52.004;5.908;2022-12-18T03:59:43;25.35;;;16.10;;
42036;SDS011;30340;52.004;5.908;2022-12-18T04:02:10;26.05;;;17.45;;
42036;SDS011;30340;52.004;5.908;2022-12-18T04:04:37;23.98;;;15.35;;
42036;SDS011;30340;52.004;5.908;2022-12-18T04:07:04;23.50;;;14.25;;
42036;SDS011;30340;52.004;5.908;2022-12-18T04:09:31;26.23;;;17.02;;
42036;SDS011;30340;52.004;5.908;2022-12-18T04:11:59;20.73;;;13.63;;
42036;SDS011;30340;52.004;5.908;2022-12-18T04:14:24;24.45;;;14.98;;
42036;SDS011;30340;52.004;5.908;2022-12-18T04:16:50;23.10;;;13.02;;
42036;SDS011;30340;52.004;5.908;2022-12-18T04:19:15;24.48;;;14.48;;
42036;SDS011;30340;52.004;5.908;2022-12-18T04:21:41;21.65;;;14.15;;
42036;SDS011;30340;52.004;5.908;2022-12-18T04:24:07;25.00;;;15.32;;
42036;SDS011;30340;52.004;5.908;2022-12-18T04:26:33;25.90;;;14.73;;
42036;SDS011;30340;52.004;5.908;2022-12-18T04:28:59;24.05;;;15.07;;
42036;SDS011;30340;52.004;5.908;2022-12-18T04:31:25;28.08;;;15.95;;
42036;SDS011;30340;52.004;5.908;2022-12-18T04:33:51;22.60;;;14.60;;
42036;SDS011;30340;52.004;5.908;2022-12-18T04:36:17;20.92;;;12.82;;
42036;SDS011;30340;52.004;5.908;2022-12-18T04:38:42;22.83;;;14.52;;
42036;SDS011;30340;52.004;5.908;2022-12-18T04:41:08;22.58;;;14.43;;
42036;SDS011;30340;52.004;5.908;2022-12-18T04:43:33;20.40;;;13.77;;
42036;SDS011;30340;52.004;5.908;2022-12-18T04:46:03;22.45;;;14.55;;
42036;SDS011;30340;52.004;5.908;2022-12-18T04:48:30;23.17;;;14.07;;
42036;SDS011;30340;52.004;5.908;2022-12-18T04:50:55;24.73;;;14.68;;
42036;SDS011;30340;52.004;5.908;2022-12-18T04:53:21;25.85;;;15.27;;
42036;SDS011;30340;52.004;5.908;2022-12-18T04:55:46;23.17;;;14.27;;
42036;SDS011;30340;52.004;5.908;2022-12-18T04:58:12;20.95;;;13.38;;
42036;SDS011;30340;52.004;5.908;2022-12-18T05:00:38;21.52;;;14.25;;
42036;SDS011;30340;52.004;5.908;2022-12-18T05:03:04;20.67;;;13.60;;
42036;SDS011;30340;52.004;5.908;2022-12-18T05:05:30;23.20;;;14.85;;
42036;SDS011;30340;52.004;5.908;2022-12-18T05:07:55;21.02;;;12.88;;
42036;SDS011;30340;52.004;5.908;2022-12-18T05:10:21;23.10;;;13.60;;
42036;SDS011;30340;52.004;5.908;2022-12-18T05:12:47;23.40;;;13.73;;
42036;SDS011;30340;52.004;5.908;2022-12-18T05:15:28;21.60;;;12.73;;
42036;SDS011;30340;52.004;5.908;2022-12-18T05:17:55;23.33;;;14.18;;
42036;SDS011;30340;52.004;5.908;2022-12-18T05:20:21;20.70;;;12.80;;
42036;SDS011;30340;52.004;5.908;2022-12-18T05:22:48;22.63;;;13.98;;
42036;SDS011;30340;52.004;5.908;2022-12-18T05:25:13;24.45;;;14.90;;
42036;SDS011;30340;52.004;5.908;2022-12-18T05:27:39;20.92;;;13.23;;
42036;SDS011;30340;52.004;5.908;2022-12-18T05:30:05;21.38;;;13.43;;
42036;SDS011;30340;52.004;5.908;2022-12-18T05:32:31;19.63;;;13.02;;
42036;SDS011;30340;52.004;5.908;2022-12-18T05:34:57;21.17;;;13.80;;
42036;SDS011;30340;52.004;5.908;2022-12-18T05:37:22;20.73;;;13.40;;
42036;SDS011;30340;52.004;5.908;2022-12-18T05:39:48;24.38;;;14.35;;
42036;SDS011;30340;52.004;5.908;2022-12-18T05:42:14;19.25;;;12.73;;
42036;SDS011;30340;52.004;5.908;2022-12-18T05:44:39;23.90;;;12.88;;
42036;SDS011;30340;52.004;5.908;2022-12-18T05:47:05;21.13;;;12.95;;
42036;SDS011;30340;52.004;5.908;2022-12-18T05:49:31;22.67;;;14.55;;
42036;SDS011;30340;52.004;5.908;2022-12-18T05:51:56;21.60;;;13.93;;
42036;SDS011;30340;52.004;5.908;2022-12-18T05:54:22;20.00;;;12.82;;
42036;SDS011;30340;52.004;5.908;2022-12-18T05:56:47;24.25;;;15.30;;
42036;SDS011;30340;52.004;5.908;2022-12-18T05:59:13;23.15;;;14.63;;
42036;SDS011;30340;52.004;5.908;2022-12-18T06:01:39;24.73;;;15.15;;
42036;SDS011;30340;52.004;5.908;2022-12-18T06:04:04;22.00;;;14.68;;
42036;SDS011;30340;52.004;5.908;2022-12-18T06:06:30;21.33;;;13.65;;
42036;SDS011;30340;52.004;5.908;2022-12-18T06:08:56;24.35;;;14.23;;
42036;SDS011;30340;52.004;5.908;2022-12-18T06:11:23;22.45;;;14.23;;
42036;SDS011;30340;52.004;5.908;2022-12-18T06:13:51;20.13;;;13.45;;
42036;SDS011;30340;52.004;5.908;2022-12-18T06:16:18;22.33;;;13.82;;
42036;SDS011;30340;52.004;5.908;2022-12-18T06:18:44;19.67;;;13.73;;
42036;SDS011;30340;52.004;5.908;2022-12-18T06:21:09;21.75;;;14.23;;
42036;SDS011;30340;52.004;5.908;2022-12-18T06:23:35;19.63;;;13.05;;
42036;SDS011;30340;52.004;5.908;2022-12-18T06:26:08;20.75;;;13.75;;
42036;SDS011;30340;52.004;5.908;2022-12-18T06:28:35;21.80;;;14.30;;
42036;SDS011;30340;52.004;5.908;2022-12-18T06:31:01;24.38;;;15.85;;
42036;SDS011;30340;52.004;5.908;2022-12-18T06:33:31;21.02;;;14.40;;
42036;SDS011;30340;52.004;5.908;2022-12-18T06:36:07;23.60;;;14.82;;
42036;SDS011;30340;52.004;5.908;2022-12-18T06:38:35;22.33;;;14.65;;
42036;SDS011;30340;52.004;5.908;2022-12-18T06:41:08;22.45;;;14.30;;
42036;SDS011;30340;52.004;5.908;2022-12-18T06:43:35;20.95;;;13.95;;
42036;SDS011;30340;52.004;5.908;2022-12-18T06:46:01;23.17;;;15.50;;
42036;SDS011;30340;52.004;5.908;2022-12-18T06:48:28;22.17;;;14.15;;
42036;SDS011;30340;52.004;5.908;2022-12-18T06:50:54;21.13;;;14.10;;
42036;SDS011;30340;52.004;5.908;2022-12-18T06:53:20;19.63;;;13.75;;
42036;SDS011;30340;52.004;5.908;2022-12-18T06:55:46;21.38;;;14.07;;
42036;SDS011;30340;52.004;5.908;2022-12-18T06:58:12;20.70;;;13.95;;
42036;SDS011;30340;52.004;5.908;2022-12-18T07:00:37;24.55;;;14.65;;
42036;SDS011;30340;52.004;5.908;2022-12-18T07:03:03;19.38;;;12.95;;
42036;SDS011;30340;52.004;5.908;2022-12-18T07:05:29;21.65;;;14.60;;
42036;SDS011;30340;52.004;5.908;2022-12-18T07:07:54;22.85;;;14.63;;
42036;SDS011;30340;52.004;5.908;2022-12-18T07:10:20;20.63;;;13.40;;
42036;SDS011;30340;52.004;5.908;2022-12-18T07:12:45;22.63;;;13.98;;
42036;SDS011;30340;52.004;5.908;2022-12-18T07:15:11;22.77;;;14.80;;
42036;SDS011;30340;52.004;5.908;2022-12-18T07:17:37;21.33;;;14.38;;
42036;SDS011;30340;52.004;5.908;2022-12-18T07:20:02;24.08;;;13.90;;
42036;SDS011;30340;52.004;5.908;2022-12-18T07:22:28;21.55;;;14.48;;
42036;SDS011;30340;52.004;5.908;2022-12-18T07:24:54;19.98;;;13.18;;
42036;SDS011;30340;52.004;5.908;2022-12-18T07:27:20;20.63;;;13.60;;
42036;SDS011;30340;52.004;5.908;2022-12-18T07:29:46;21.13;;;14.18;;
42036;SDS011;30340;52.004;5.908;2022-12-18T07:32:11;20.45;;;13.80;;
42036;SDS011;30340;52.004;5.908;2022-12-18T07:34:37;22.38;;;13.90;;
42036;SDS011;30340;52.004;5.908;2022-12-18T07:37:02;19.40;;;13.02;;
42036;SDS011;30340;52.004;5.908;2022-12-18T07:39:28;19.20;;;12.88;;
42036;SDS011;30340;52.004;5.908;2022-12-18T07:41:55;19.77;;;12.98;;
42036;SDS011;30340;52.004;5.908;2022-12-18T07:44:39;22.05;;;13.07;;
42036;SDS011;30340;52.004;5.908;2022-12-18T07:47:04;19.15;;;12.98;;
42036;SDS011;30340;52.004;5.908;2022-12-18T07:49:30;21.02;;;12.77;;
42036;SDS011;30340;52.004;5.908;2022-12-18T07:51:56;19.55;;;12.40;;
42036;SDS011;30340;52.004;5.908;2022-12-18T07:54:22;19.65;;;13.77;;
42036;SDS011;30340;52.004;5.908;2022-12-18T07:56:48;18.45;;;12.15;;
42036;SDS011;30340;52.004;5.908;2022-12-18T07:59:14;20.42;;;13.05;;
42036;SDS011;30340;52.004;5.908;2022-12-18T08:01:39;19.60;;;12.93;;
42036;SDS011;30340;52.004;5.908;2022-12-18T08:04:05;22.30;;;14.35;;
42036;SDS011;30340;52.004;5.908;2022-12-18T08:06:31;19.10;;;12.07;;
42036;SDS011;30340;52.004;5.908;2022-12-18T08:09:02;20.00;;;13.25;;
42036;SDS011;30340;52.004;5.908;2022-12-18T08:11:28;20.75;;;12.75;;
42036;SDS011;30340;52.004;5.908;2022-12-18T08:13:54;20.13;;;12.48;;
42036;SDS011;30340;52.004;5.908;2022-12-18T08:16:20;17.30;;;11.45;;
42036;SDS011;30340;52.004;5.908;2022-12-18T08:18:48;20.45;;;13.68;;
42036;SDS011;30340;52.004;5.908;2022-12-18T08:21:18;17.75;;;11.85;;
42036;SDS011;30340;52.004;5.908;2022-12-18T08:23:47;18.48;;;12.18;;
42036;SDS011;30340;52.004;5.908;2022-12-18T08:26:13;20.13;;;12.30;;
42036;SDS011;30340;52.004;5.908;2022-12-18T08:28:39;19.10;;;12.40;;
42036;SDS011;30340;52.004;5.908;2022-12-18T08:31:06;18.05;;;12.05;;
42036;SDS011;30340;52.004;5.908;2022-12-18T08:33:32;17.67;;;11.70;;
42036;SDS011;30340;52.004;5.908;2022-12-18T08:35:59;18.73;;;11.63;;
42036;SDS011;30340;52.004;5.908;2022-12-18T08:38:25;19.13;;;12.13;;
42036;SDS011;30340;52.004;5.908;2022-12-18T08:41:05;17.40;;;10.90;;
42036;SDS011;30340;52.004;5.908;2022-12-18T08:43:32;20.13;;;12.35;;
42036;SDS011;30340;52.004;5.908;2022-12-18T08:46:17;19.75;;;12.70;;
42036;SDS011;30340;52.004;5.908;2022-12-18T08:48:43;19.65;;;12.15;;
42036;SDS011;30340;52.004;5.908;2022-12-18T08:51:09;17.38;;;11.15;;
42036;SDS011;30340;52.004;5.908;2022-12-18T08:53:35;16.40;;;11.65;;
42036;SDS011;30340;52.004;5.908;2022-12-18T08:56:01;19.17;;;12.15;;
42036;SDS011;30340;52.004;5.908;2022-12-18T08:58:27;17.50;;;11.68;;
42036;SDS011;30340;52.004;5.908;2022-12-18T09:00:54;19.27;;;12.38;;
42036;SDS011;30340;52.004;5.908;2022-12-18T09:03:19;19.85;;;12.13;;
42036;SDS011;30340;52.004;5.908;2022-12-18T09:05:47;16.80;;;10.85;;
42036;SDS011;30340;52.004;5.908;2022-12-18T09:08:13;17.40;;;11.18;;
42036;SDS011;30340;52.004;5.908;2022-12-18T09:10:42;17.00;;;11.50;;
42036;SDS011;30340;52.004;5.908;2022-12-18T09:13:12;17.15;;;10.80;;
42036;SDS011;30340;52.004;5.908;2022-12-18T09:15:43;19.05;;;11.70;;
42036;SDS011;30340;52.004;5.908;2022-12-18T09:18:10;16.23;;;10.43;;
42036;SDS011;30340;52.004;5.908;2022-12-18T09:20:37;16.85;;;10.77;;
42036;SDS011;30340;52.004;5.908;2022-12-18T09:23:03;18.15;;;11.93;;
42036;SDS011;30340;52.004;5.908;2022-12-18T09:25:29;16.23;;;10.65;;
42036;SDS011;30340;52.004;5.908;2022-12-18T09:27:58;17.77;;;10.95;;
42036;SDS011;30340;52.004;5.908;2022-12-18T09:30:24;17.02;;;11.27;;
42036;SDS011;30340;52.004;5.908;2022-12-18T09:32:49;16.45;;;10.95;;
42036;SDS011;30340;52.004;5.908;2022-12-18T09:35:15;16.70;;;10.25;;
42036;SDS011;30340;52.004;5.908;2022-12-18T09:37:41;16.02;;;11.00;;
42036;SDS011;30340;52.004;5.908;2022-12-18T09:40:12;16.83;;;10.85;;
42036;SDS011;30340;52.004;5.908;2022-12-18T09:42:40;15.50;;;10.32;;
42036;SDS011;30340;52.004;5.908;2022-12-18T09:45:11;16.02;;;10.38;;
42036;SDS011;30340;52.004;5.908;2022-12-18T09:47:39;14.60;;;10.05;;
42036;SDS011;30340;52.004;5.908;2022-12-18T09:50:55;15.55;;;10.90;;
42036;SDS011;30340;52.004;5.908;2022-12-18T09:52:57;14.60;;;9.68;;
42036;SDS011;30340;52.004;5.908;2022-12-18T10:02:34;15.15;;;10.00;;
42036;SDS011;30340;52.004;5.908;2022-12-18T10:05:37;17.45;;;10.15;;
42036;SDS011;30340;52.004;5.908;2022-12-18T10:12:12;16.00;;;9.90;;
42036;SDS011;30340;52.004;5.908;2022-12-18T10:15:19;18.15;;;11.20;;
42036;SDS011;30340;52.004;5.908;2022-12-18T10:18:14;17.80;;;11.38;;
42036;SDS011;30340;52.004;5.908;2022-12-18T10:21:00;15.85;;;9.85;;
42036;SDS011;30340;52.004;5.908;2022-12-18T10:26:26;15.70;;;10.07;;
42036;SDS011;30340;52.004;5.908;2022-12-18T10:28:52;17.42;;;10.35;;
42036;SDS011;30340;52.004;5.908;2022-12-18T10:31:19;17.20;;;10.57;;
42036;SDS011;30340;52.004;5.908;2022-12-18T10:33:47;15.75;;;10.00;;
42036;SDS011;30340;52.004;5.908;2022-12-18T10:36:12;15.80;;;10.60;;
42036;SDS011;30340;52.004;5.908;2022-12-18T10:41:49;18.00;;;10.75;;
42036;SDS011;30340;52.004;5.908;2022-12-18T10:44:16;15.02;;;10.00;;
42036;SDS011;30340;52.004;5.908;2022-12-18T10:46:51;14.85;;;9.88;;
42036;SDS011;30340;52.004;5.908;2022-12-18T10:49:25;16.05;;;11.40;;
42036;SDS011;30340;52.004;5.908;2022-12-18T10:54:31;19.27;;;11.27;;
42036;SDS011;30340;52.004;5.908;2022-12-18T10:59:51;15.73;;;10.13;;
42036;SDS011;30340;52.004;5.908;2022-12-18T11:04:57;17.10;;;10.48;;
42036;SDS011;30340;52.004;5.908;2022-12-18T11:07:23;17.63;;;10.65;;
42036;SDS011;30340;52.004;5.908;2022-12-18T11:09:59;16.88;;;11.15;;
42036;SDS011;30340;52.004;5.908;2022-12-18T11:12:27;16.40;;;10.30;;
42036;SDS011;30340;52.004;5.908;2022-12-18T11:14:54;15.77;;;10.35;;
42036;SDS011;30340;52.004;5.908;2022-12-18T11:17:25;17.02;;;10.90;;
42036;SDS011;30340;52.004;5.908;2022-12-18T11:20:03;15.98;;;10.88;;
42036;SDS011;30340;52.004;5.908;2022-12-18T11:22:32;15.63;;;10.20;;
42036;SDS011;30340;52.004;5.908;2022-12-18T11:27:47;15.27;;;10.55;;
42036;SDS011;30340;52.004;5.908;2022-12-18T11:32:56;17.67;;;10.60;;
42036;SDS011;30340;52.004;5.908;2022-12-18T11:40:47;19.98;;;12.77;;
42036;SDS011;30340;52.004;5.908;2022-12-18T11:43:28;16.20;;;10.25;;
42036;SDS011;30340;52.004;5.908;2022-12-18T11:46:15;18.80;;;10.75;;
42036;SDS011;30340;52.004;5.908;2022-12-18T11:48:56;20.42;;;11.90;;
42036;SDS011;30340;52.004;5.908;2022-12-18T11:51:38;16.80;;;11.23;;
42036;SDS011;30340;52.004;5.908;2022-12-18T11:54:14;16.33;;;10.70;;
42036;SDS011;30340;52.004;5.908;2022-12-18T11:57:29;15.60;;;10.10;;
42036;SDS011;30340;52.004;5.908;2022-12-18T12:02:28;18.25;;;11.30;;
42036;SDS011;30340;52.004;5.908;2022-12-18T12:08:01;16.27;;;10.80;;
42036;SDS011;30340;52.004;5.908;2022-12-18T12:16:11;22.10;;;13.00;;
42036;SDS011;30340;52.004;5.908;2022-12-18T12:21:42;17.42;;;10.98;;
42036;SDS011;30340;52.004;5.908;2022-12-18T12:24:18;18.17;;;10.95;;
42036;SDS011;30340;52.004;5.908;2022-12-18T12:27:08;16.25;;;10.32;;
42036;SDS011;30340;52.004;5.908;2022-12-18T12:30:16;18.88;;;12.25;;
42036;SDS011;30340;52.004;5.908;2022-12-18T12:33:05;16.17;;;10.65;;
42036;SDS011;30340;52.004;5.908;2022-12-18T12:41:00;18.40;;;11.70;;
42036;SDS011;30340;52.004;5.908;2022-12-18T12:43:42;17.40;;;12.10;;
42036;SDS011;30340;52.004;5.908;2022-12-18T12:46:12;19.23;;;11.40;;
42036;SDS011;30340;52.004;5.908;2022-12-18T12:51:18;15.80;;;10.60;;
42036;SDS011;30340;52.004;5.908;2022-12-18T12:53:50;17.35;;;10.75;;
42036;SDS011;30340;52.004;5.908;2022-12-18T12:56:18;19.45;;;11.82;;
42036;SDS011;30340;52.004;5.908;2022-12-18T13:01:27;16.15;;;11.18;;
42036;SDS011;30340;52.004;5.908;2022-12-18T13:04:12;16.65;;;10.48;;
42036;SDS011;30340;52.004;5.908;2022-12-18T13:09:30;16.85;;;11.25;;
42036;SDS011;30340;52.004;5.908;2022-12-18T13:12:00;16.70;;;11.25;;
42036;SDS011;30340;52.004;5.908;2022-12-18T13:14:52;16.55;;;10.73;;
42036;SDS011;30340;52.004;5.908;2022-12-18T13:20:01;17.38;;;11.18;;
42036;SDS011;30340;52.004;5.908;2022-12-18T13:22:31;18.10;;;11.52;;
42036;SDS011;30340;52.004;5.908;2022-12-18T13:25:00;18.05;;;11.57;;
42036;SDS011;30340;52.004;5.908;2022-12-18T13:30:40;17.23;;;11.45;;
42036;SDS011;30340;52.004;5.908;2022-12-18T13:40:57;17.65;;;10.73;;
42036;SDS011;30340;52.004;5.908;2022-12-18T13:43:28;18.85;;;12.40;;
42036;SDS011;30340;52.004;5.908;2022-12-18T13:46:18;18.55;;;11.30;;
42036;SDS011;30340;52.004;5.908;2022-12-18T13:48:55;17.45;;;11.00;;
42036;SDS011;30340;52.004;5.908;2022-12-18T13:51:21;15.90;;;10.45;;
42036;SDS011;30340;52.004;5.908;2022-12-18T13:53:50;16.25;;;11.38;;
42036;SDS011;30340;52.004;5.908;2022-12-18T13:56:23;15.13;;;10.30;;
42036;SDS011;30340;52.004;5.908;2022-12-18T14:01:45;16.95;;;11.52;;
42036;SDS011;30340;52.004;5.908;2022-12-18T14:04:29;17.50;;;11.35;;
42036;SDS011;30340;52.004;5.908;2022-12-18T14:06:57;17.67;;;11.45;;
42036;SDS011;30340;52.004;5.908;2022-12-18T14:09:31;17.13;;;11.32;;
42036;SDS011;30340;52.004;5.908;2022-12-18T14:12:01;23.35;;;15.60;;
42036;SDS011;30340;52.004;5.908;2022-12-18T14:14:47;23.27;;;15.32;;
42036;SDS011;30340;52.004;5.908;2022-12-18T14:17:14;22.02;;;14.20;;
42036;SDS011;30340;52.004;5.908;2022-12-18T14:19:59;19.25;;;12.65;;
42036;SDS011;30340;52.004;5.908;2022-12-18T14:22:25;18.15;;;12.38;;
42036;SDS011;30340;52.004;5.908;2022-12-18T14:27:49;18.08;;;11.80;;
42036;SDS011;30340;52.004;5.908;2022-12-18T14:30:22;20.90;;;13.38;;
42036;SDS011;30340;52.004;5.908;2022-12-18T14:32:59;22.58;;;14.60;;
42036;SDS011;30340;52.004;5.908;2022-12-18T14:35:30;19.73;;;13.55;;
42036;SDS011;30340;52.004;5.908;2022-12-18T14:41:17;24.90;;;16.80;;
42036;SDS011;30340;52.004;5.908;2022-12-18T14:43:43;19.77;;;13.05;;
42036;SDS011;30340;52.004;5.908;2022-12-18T14:51:49;23.25;;;17.90;;
42036;SDS011;30340;52.004;5.908;2022-12-18T14:54:18;21.38;;;14.15;;
42036;SDS011;30340;52.004;5.908;2022-12-18T14:56:51;23.38;;;16.35;;
42036;SDS011;30340;52.004;5.908;2022-12-18T14:59:26;19.60;;;12.68;;
42036;SDS011;30340;52.004;5.908;2022-12-18T15:04:38;22.10;;;14.27;;
42036;SDS011;30340;52.004;5.908;2022-12-18T15:07:18;18.25;;;13.10;;
42036;SDS011;30340;52.004;5.908;2022-12-18T15:25:42;18.98;;;13.23;;
42036;SDS011;30340;52.004;5.908;2022-12-18T15:34:09;21.55;;;13.73;;
42036;SDS011;30340;52.004;5.908;2022-12-18T15:36:38;19.25;;;12.50;;
42036;SDS011;30340;52.004;5.908;2022-12-18T15:39:03;19.65;;;13.00;;
42036;SDS011;30340;52.004;5.908;2022-12-18T15:41:30;19.23;;;12.57;;
42036;SDS011;30340;52.004;5.908;2022-12-18T15:43:58;25.52;;;16.52;;
42036;SDS011;30340;52.004;5.908;2022-12-18T15:46:24;22.27;;;15.23;;
42036;SDS011;30340;52.004;5.908;2022-12-18T15:48:55;22.92;;;14.48;;
42036;SDS011;30340;52.004;5.908;2022-12-18T15:51:34;23.00;;;15.10;;
42036;SDS011;30340;52.004;5.908;2022-12-18T15:54:02;22.60;;;14.98;;
42036;SDS011;30340;52.004;5.908;2022-12-18T15:56:30;22.65;;;14.88;;
42036;SDS011;30340;52.004;5.908;2022-12-18T15:59:16;23.38;;;15.05;;
42036;SDS011;30340;52.004;5.908;2022-12-18T16:01:44;23.00;;;14.25;;
42036;SDS011;30340;52.004;5.908;2022-12-18T16:06:42;24.67;;;15.65;;
42036;SDS011;30340;52.004;5.908;2022-12-18T16:09:08;22.75;;;14.20;;
42036;SDS011;30340;52.004;5.908;2022-12-18T16:11:34;20.17;;;13.38;;
42036;SDS011;30340;52.004;5.908;2022-12-18T16:16:48;23.83;;;15.48;;
42036;SDS011;30340;52.004;5.908;2022-12-18T16:19:15;25.33;;;15.85;;
42036;SDS011;30340;52.004;5.908;2022-12-18T16:21:42;24.17;;;16.27;;
42036;SDS011;30340;52.004;5.908;2022-12-18T16:24:30;27.67;;;18.08;;
42036;SDS011;30340;52.004;5.908;2022-12-18T16:26:57;24.25;;;16.02;;
42036;SDS011;30340;52.004;5.908;2022-12-18T16:29:25;27.92;;;17.15;;
42036;SDS011;30340;52.004;5.908;2022-12-18T16:31:55;25.00;;;15.00;;
42036;SDS011;30340;52.004;5.908;2022-12-18T16:34:28;20.90;;;14.73;;
42036;SDS011;30340;52.004;5.908;2022-12-18T16:36:59;23.70;;;15.10;;
42036;SDS011;30340;52.004;5.908;2022-12-18T16:39:27;26.45;;;16.08;;
42036;SDS011;30340;52.004;5.908;2022-12-18T16:41:53;22.95;;;14.80;;
42036;SDS011;30340;52.004;5.908;2022-12-18T16:44:19;25.35;;;16.67;;
42036;SDS011;30340;52.004;5.908;2022-12-18T16:46:45;25.70;;;16.90;;
42036;SDS011;30340;52.004;5.908;2022-12-18T16:49:11;24.23;;;16.20;;
42036;SDS011;30340;52.004;5.908;2022-12-18T16:51:37;23.95;;;15.02;;
42036;SDS011;30340;52.004;5.908;2022-12-18T16:54:03;26.80;;;16.52;;
42036;SDS011;30340;52.004;5.908;2022-12-18T16:56:29;26.80;;;17.40;;
42036;SDS011;30340;52.004;5.908;2022-12-18T16:58:56;29.33;;;18.63;;
42036;SDS011;30340;52.004;5.908;2022-12-18T17:01:24;28.40;;;17.77;;
42036;SDS011;30340;52.004;5.908;2022-12-18T17:03:51;29.27;;;18.05;;
42036;SDS011;30340;52.004;5.908;2022-12-18T17:06:18;26.63;;;17.85;;
42036;SDS011;30340;52.004;5.908;2022-12-18T17:08:43;24.85;;;16.08;;
42036;SDS011;30340;52.004;5.908;2022-12-18T17:11:09;27.13;;;17.20;;
42036;SDS011;30340;52.004;5.908;2022-12-18T17:13:35;24.63;;;16.30;;
42036;SDS011;30340;52.004;5.908;2022-12-18T17:16:01;27.35;;;17.67;;